createdAt,value
2022-09-21T00:01:07.711Z,32.25
2022-09-21T00:03:35.951Z,39.00
2022-09-21T00:06:05.071Z,26.25
2022-09-21T00:08:33.138Z,22.75
2022-09-21T00:11:03.578Z,29.75
2022-09-21T00:13:32.669Z,35.00
2022-09-21T00:16:00.715Z,25.25
2022-09-21T00:18:29.822Z,30.75
2022-09-21T00:20:57.940Z,34.00
2022-09-21T00:23:26.798Z,30.75
2022-09-21T00:25:54.770Z,32.50
2022-09-21T00:28:24.180Z,31.00
2022-09-21T00:30:52.143Z,31.00
2022-09-21T00:33:20.193Z,27.00
2022-09-21T00:35:48.319Z,31.75
2022-09-21T00:38:16.398Z,32.00
2022-09-21T00:40:44.711Z,25.25
2022-09-21T00:43:16.638Z,24.75
2022-09-21T00:45:48.538Z,30.25
2022-09-21T00:48:16.910Z,30.00
2022-09-21T00:50:48.107Z,23.25
2022-09-21T00:53:17.016Z,31.50
2022-09-21T00:55:49.348Z,30.75
2022-09-21T00:58:20.839Z,25.25
2022-09-21T01:00:50.366Z,32.25
2022-09-21T01:03:18.461Z,26.00
2022-09-21T01:05:46.469Z,26.00
2022-09-21T01:08:16.183Z,28.00
2022-09-21T01:10:56.108Z,30.25
2022-09-21T01:13:31.196Z,24.25
2022-09-21T01:16:03.407Z,14.50
2022-09-21T01:18:35.487Z,27.75
2022-09-21T01:21:17.032Z,33.25
2022-09-21T01:24:18.270Z,30.00
2022-09-21T01:27:01.790Z,30.25
2022-09-21T01:29:33.513Z,35.00
2022-09-21T01:32:05.944Z,30.75
2022-09-21T01:34:37.853Z,31.50
2022-09-21T01:37:09.196Z,29.50
2022-09-21T01:39:38.419Z,32.75
2022-09-21T01:42:07.753Z,36.75
2022-09-21T01:44:39.698Z,38.25
2022-09-21T01:47:09.810Z,36.75
2022-09-21T01:49:39.855Z,33.50
2022-09-21T01:52:13.067Z,29.50
2022-09-21T01:54:44.887Z,31.00
2022-09-21T01:57:16.714Z,24.75
2022-09-21T01:59:50.449Z,31.00
2022-09-21T02:02:20.725Z,26.00
2022-09-21T02:04:49.207Z,35.75
2022-09-21T02:07:18.263Z,20.25
2022-09-21T02:09:48.350Z,27.50
2022-09-21T02:12:19.062Z,34.25
2022-09-21T02:14:49.513Z,29.50
2022-09-21T02:17:25.610Z,33.25
2022-09-21T02:19:57.054Z,30.50
2022-09-21T02:22:31.404Z,29.50
2022-09-21T02:25:06.773Z,39.25
2022-09-21T02:27:37.113Z,33.25
2022-09-21T02:30:09.119Z,34.50
2022-09-21T02:32:42.091Z,27.25
2022-09-21T02:35:15.945Z,28.00
2022-09-21T02:37:46.860Z,24.75
2022-09-21T02:40:23.332Z,22.00
2022-09-21T02:42:54.409Z,29.00
2022-09-21T02:45:26.344Z,26.00
2022-09-21T02:47:59.482Z,26.00
2022-09-21T02:50:33.619Z,29.75
2022-09-21T02:53:02.698Z,28.75
2022-09-21T02:55:31.567Z,37.00
2022-09-21T02:58:02.099Z,37.00
2022-09-21T03:00:31.637Z,24.50
2022-09-21T03:02:59.673Z,22.75
2022-09-21T03:05:28.687Z,29.50
2022-09-21T03:07:56.734Z,37.20
2022-09-21T03:10:25.680Z,33.25
2022-09-21T03:12:57.652Z,30.00
2022-09-21T03:15:26.206Z,35.00
2022-09-21T03:17:55.681Z,38.00
2022-09-21T03:20:23.767Z,28.50
2022-09-21T03:22:51.853Z,32.75
2022-09-21T03:25:19.857Z,26.00
2022-09-21T03:27:47.856Z,24.00
2022-09-21T03:30:16.047Z,27.00
2022-09-21T03:32:44.148Z,23.25
2022-09-21T03:35:13.840Z,26.00
2022-09-21T03:37:41.940Z,23.50
2022-09-21T03:40:11.665Z,28.75
2022-09-21T03:42:39.943Z,28.00
2022-09-21T03:45:08.559Z,31.75
2022-09-21T03:47:36.708Z,30.00
2022-09-21T03:50:09.690Z,32.00
2022-09-21T03:52:39.733Z,28.75
2022-09-21T03:55:08.653Z,7.75
2022-09-21T03:57:37.311Z,30.75
2022-09-21T04:00:07.340Z,36.50
2022-09-21T04:02:35.451Z,37.50
2022-09-21T04:05:03.827Z,39.50
2022-09-21T04:07:33.930Z,23.75
2022-09-21T04:10:03.593Z,32.50
2022-09-21T04:12:31.809Z,31.50
2022-09-21T04:14:59.879Z,38.25
2022-09-21T04:17:27.996Z,31.00
2022-09-21T04:19:56.244Z,36.25
2022-09-21T04:22:25.025Z,37.25
2022-09-21T04:24:53.134Z,28.00
2022-09-21T04:27:22.536Z,35.50
2022-09-21T04:29:50.713Z,9.25
2022-09-21T04:32:18.740Z,39.00
2022-09-21T04:34:47.187Z,31.00
2022-09-21T04:37:15.380Z,22.25
2022-09-21T04:39:43.403Z,35.50
2022-09-21T04:42:11.814Z,37.75
2022-09-21T04:44:42.213Z,32.00
2022-09-21T04:47:10.188Z,31.25
2022-09-21T04:49:38.650Z,28.25
2022-09-21T04:52:06.943Z,36.25
2022-09-21T04:54:35.055Z,33.75
2022-09-21T04:57:03.142Z,33.25
2022-09-21T04:59:31.208Z,29.25
2022-09-21T05:02:00.619Z,34.50
2022-09-21T05:04:29.962Z,33.50
2022-09-21T05:06:59.527Z,45.00
2022-09-21T05:09:45.341Z,31.75
2022-09-21T05:12:13.647Z,16.50
2022-09-21T05:14:44.269Z,32.75
2022-09-21T05:17:14.073Z,38.00
2022-09-21T05:19:42.364Z,40.00
2022-09-21T05:22:10.481Z,34.75
2022-09-21T05:24:38.541Z,34.25
2022-09-21T05:27:06.858Z,28.00
2022-09-21T05:29:35.254Z,29.50
2022-09-21T05:32:07.548Z,27.75
2022-09-21T05:34:43.661Z,30.50
2022-09-21T05:37:15.708Z,29.50
2022-09-21T05:39:43.982Z,27.00
2022-09-21T05:42:12.523Z,35.50
2022-09-21T05:44:40.884Z,25.75
2022-09-21T05:47:17.067Z,32.75
2022-09-21T05:49:51.138Z,31.75
2022-09-21T05:52:24.736Z,35.25
2022-09-21T05:54:57.322Z,24.00
2022-09-21T05:57:30.947Z,26.00
2022-09-21T06:00:04.527Z,35.50
2022-09-21T06:02:50.259Z,40.00
2022-09-21T06:05:20.386Z,32.75
2022-09-21T06:07:48.550Z,27.00
2022-09-21T06:10:17.449Z,23.75
2022-09-21T06:12:45.628Z,27.75
2022-09-21T06:15:15.810Z,28.00
2022-09-21T06:17:45.203Z,30.75
2022-09-21T06:20:14.283Z,26.75
2022-09-21T06:22:44.195Z,22.50
2022-09-21T06:25:12.862Z,27.00
2022-09-21T06:27:41.122Z,30.25
2022-09-21T06:30:09.600Z,31.25
2022-09-21T06:32:37.755Z,26.00
2022-09-21T06:35:06.181Z,30.25
2022-09-21T06:37:34.436Z,30.50
2022-09-21T06:40:04.326Z,22.50
2022-09-21T06:42:32.698Z,22.75
2022-09-21T06:45:01.100Z,26.50
2022-09-21T06:47:30.140Z,29.75
2022-09-21T06:49:58.896Z,26.25
2022-09-21T06:52:27.457Z,30.00
2022-09-21T06:54:55.717Z,28.67
2022-09-21T06:57:25.487Z,24.00
2022-09-21T06:59:53.759Z,31.25
2022-09-21T07:02:22.169Z,20.00
2022-09-21T07:04:50.363Z,21.00
2022-09-21T07:07:18.591Z,27.50
2022-09-21T07:12:36.737Z,23.25
2022-09-21T07:15:11.589Z,24.00
2022-09-21T07:17:50.297Z,20.75
2022-09-21T07:20:20.819Z,21.25
2022-09-21T07:22:49.554Z,21.00
2022-09-21T07:25:18.013Z,21.50
2022-09-21T07:27:48.335Z,17.50
2022-09-21T07:30:16.753Z,24.50
2022-09-21T07:32:45.028Z,23.00
2022-09-21T07:35:13.136Z,25.50
2022-09-21T07:37:41.464Z,28.25
2022-09-21T07:40:10.238Z,28.50
2022-09-21T07:42:39.432Z,26.25
2022-09-21T07:45:11.284Z,25.00
2022-09-21T07:47:39.461Z,22.25
2022-09-21T07:50:08.144Z,20.50
2022-09-21T07:52:36.370Z,24.25
2022-09-21T07:55:09.552Z,22.00
2022-09-21T07:57:56.223Z,18.25
2022-09-21T08:00:25.951Z,16.75
2022-09-21T08:02:54.017Z,22.75
2022-09-21T08:05:22.137Z,23.00
2022-09-21T08:07:50.466Z,20.25
2022-09-21T08:10:18.998Z,17.00
2022-09-21T08:12:47.035Z,19.50
2022-09-21T08:15:36.979Z,18.25
2022-09-21T08:18:07.334Z,21.00
2022-09-21T08:20:36.303Z,16.75
2022-09-21T08:23:06.022Z,19.50
2022-09-21T08:25:34.459Z,20.00
2022-09-21T08:28:09.484Z,19.75
2022-09-21T08:30:38.205Z,16.75
2022-09-21T08:33:08.421Z,22.00
2022-09-21T08:35:37.119Z,23.00
2022-09-21T08:38:05.323Z,23.25
2022-09-21T08:40:34.231Z,25.50
2022-09-21T08:43:05.485Z,15.50
2022-09-21T08:45:35.746Z,22.00
2022-09-21T08:48:07.227Z,15.75
2022-09-21T08:50:39.186Z,15.00
2022-09-21T08:53:09.339Z,18.50
2022-09-21T08:55:37.554Z,15.50
2022-09-21T08:58:07.607Z,16.00
2022-09-21T09:00:38.016Z,12.25
2022-09-21T09:03:16.917Z,17.00
2022-09-21T09:05:51.185Z,6.20
2022-09-21T09:08:25.767Z,15.00
2022-09-21T09:11:01.711Z,11.80
2022-09-21T09:13:39.571Z,14.25
2022-09-21T09:16:33.050Z,15.00
2022-09-21T09:19:08.245Z,6.25
2022-09-21T09:21:40.149Z,9.40
2022-09-21T09:24:12.028Z,12.00
2022-09-21T09:26:44.865Z,12.00
2022-09-21T09:29:20.961Z,9.75
2022-09-21T09:31:49.576Z,10.60
2022-09-21T09:34:21.002Z,8.75
2022-09-21T09:36:58.866Z,14.50
2022-09-21T09:39:29.837Z,11.00
2022-09-21T09:42:12.602Z,12.25
2022-09-21T09:44:56.033Z,15.50
2022-09-21T09:47:32.447Z,10.00
2022-09-21T09:50:05.618Z,9.00
2022-09-21T09:52:35.485Z,13.25
2022-09-21T09:55:16.019Z,7.25
2022-09-21T09:57:44.348Z,11.50
2022-09-21T10:00:15.624Z,14.25
2022-09-21T10:02:48.023Z,12.00
2022-09-21T10:05:21.675Z,14.00
2022-09-21T10:07:51.267Z,11.25
2022-09-21T10:10:33.045Z,12.00
2022-09-21T10:13:08.511Z,14.00
2022-09-21T10:15:42.726Z,11.80
2022-09-21T10:18:17.862Z,11.00
2022-09-21T10:20:54.712Z,9.50
2022-09-21T10:23:25.394Z,9.60
2022-09-21T10:26:01.791Z,11.00
2022-09-21T10:28:30.401Z,5.00
2022-09-21T10:31:12.400Z,8.25
2022-09-21T10:33:50.962Z,6.25
2022-09-21T10:36:37.309Z,4.50
2022-09-21T10:39:18.842Z,9.25
2022-09-21T10:41:50.311Z,7.00
2022-09-21T10:44:19.656Z,9.00
2022-09-21T10:46:49.080Z,6.25
2022-09-21T10:49:20.495Z,5.00
2022-09-21T10:51:49.402Z,6.75
2022-09-21T10:54:22.020Z,7.75
2022-09-21T10:56:55.040Z,5.50
2022-09-21T10:59:25.165Z,6.20
2022-09-21T11:01:54.287Z,5.20
2022-09-21T11:04:41.462Z,6.25
2022-09-21T11:07:14.023Z,7.75
2022-09-21T11:09:47.156Z,3.25
2022-09-21T11:12:36.371Z,6.00
2022-09-21T11:15:13.518Z,3.50
2022-09-21T11:17:46.322Z,5.00
2022-09-21T11:20:22.933Z,4.25
2022-09-21T11:22:57.758Z,4.50
2022-09-21T11:25:33.007Z,7.20
2022-09-21T11:28:04.343Z,8.00
2022-09-21T11:30:38.619Z,3.00
2022-09-21T11:33:16.991Z,3.50
2022-09-21T11:35:49.257Z,3.80
2022-09-21T11:38:21.815Z,1.40
2022-09-21T11:41:15.077Z,2.40
2022-09-21T11:44:03.155Z,4.00
2022-09-21T11:46:36.682Z,2.25
2022-09-21T11:49:23.082Z,8.00
2022-09-21T11:51:59.416Z,7.50
2022-09-21T11:54:46.705Z,5.75
2022-09-21T11:57:25.469Z,7.00
2022-09-21T12:00:04.357Z,4.00
2022-09-21T12:05:25.733Z,5.00
2022-09-21T12:08:16.409Z,4.00
2022-09-21T12:10:48.055Z,4.00
2022-09-21T12:13:23.242Z,5.50
2022-09-21T12:15:56.398Z,9.50
2022-09-21T12:18:32.648Z,7.50
2022-09-21T12:23:57.651Z,6.50
2022-09-21T12:26:28.941Z,6.25
2022-09-21T12:29:01.988Z,3.50
2022-09-21T12:31:33.203Z,3.00
2022-09-21T12:34:06.728Z,4.25
2022-09-21T12:36:42.006Z,6.60
2022-09-21T12:39:14.579Z,3.50
2022-09-21T12:41:47.083Z,5.25
2022-09-21T12:44:22.922Z,5.25
2022-09-21T12:46:56.730Z,5.00
2022-09-21T12:49:30.014Z,11.50
2022-09-21T12:52:00.791Z,8.00
2022-09-21T12:54:38.281Z,8.50
2022-09-21T12:57:29.667Z,8.00
2022-09-21T13:00:06.602Z,8.00
2022-09-21T13:02:37.236Z,7.00
2022-09-21T13:05:31.383Z,7.00
2022-09-21T13:08:08.811Z,10.00
2022-09-21T13:10:41.040Z,7.25
2022-09-21T13:13:18.319Z,6.50
2022-09-21T13:15:50.117Z,8.00
2022-09-21T13:18:22.759Z,8.50
2022-09-21T13:20:52.218Z,9.25
2022-09-21T13:23:25.859Z,8.00
2022-09-21T13:26:01.616Z,10.50
2022-09-21T13:28:47.754Z,8.00
2022-09-21T13:31:47.748Z,9.00
2022-09-21T13:34:33.783Z,9.25
2022-09-21T13:37:35.026Z,6.00
2022-09-21T13:40:25.507Z,6.25
2022-09-21T13:42:54.001Z,4.00
2022-09-21T13:45:41.310Z,6.00
2022-09-21T13:48:20.255Z,7.75
2022-09-21T13:50:49.123Z,4.75
2022-09-21T13:53:21.055Z,4.00
2022-09-21T13:55:52.735Z,6.75
2022-09-21T13:58:23.330Z,7.50
2022-09-21T14:00:57.000Z,8.00
2022-09-21T14:03:31.048Z,4.50
2022-09-21T14:06:04.549Z,8.00
2022-09-21T14:08:34.269Z,8.25
2022-09-21T14:11:05.802Z,8.00
2022-09-21T14:13:35.979Z,6.00
2022-09-21T14:16:26.682Z,8.25
2022-09-21T14:18:56.595Z,7.50
2022-09-21T14:21:24.772Z,6.25
2022-09-21T14:24:21.138Z,5.50
2022-09-21T14:26:54.020Z,5.00
2022-09-21T14:29:23.970Z,8.00
2022-09-21T14:31:54.654Z,4.33
2022-09-21T14:34:27.089Z,6.25
2022-09-21T14:36:57.691Z,4.50
2022-09-21T14:39:27.316Z,5.00
2022-09-21T14:41:57.146Z,4.00
2022-09-21T14:44:30.096Z,6.75
2022-09-21T14:47:13.386Z,7.00
2022-09-21T14:49:46.802Z,4.00
2022-09-21T14:52:29.568Z,6.00
2022-09-21T14:55:06.223Z,6.00
2022-09-21T14:57:44.424Z,4.25
2022-09-21T15:00:21.974Z,7.00
2022-09-21T15:02:56.584Z,7.00
2022-09-21T15:05:30.560Z,6.25
2022-09-21T15:08:27.590Z,7.00
2022-09-21T15:10:58.847Z,7.50
2022-09-21T15:13:41.768Z,7.00
2022-09-21T15:16:22.095Z,9.50
2022-09-21T15:18:51.940Z,6.75
2022-09-21T15:21:24.410Z,7.50
2022-09-21T15:23:53.314Z,6.00
2022-09-21T15:26:27.179Z,5.25
2022-09-21T15:29:12.290Z,10.25
2022-09-21T15:31:41.912Z,8.00
2022-09-21T15:34:12.125Z,7.25
2022-09-21T15:36:43.725Z,5.00
2022-09-21T15:39:28.473Z,7.50
2022-09-21T15:42:23.157Z,8.00
2022-09-21T15:44:55.642Z,6.00
2022-09-21T15:47:28.643Z,11.25
2022-09-21T15:49:57.526Z,10.00
2022-09-21T15:52:36.682Z,6.50
2022-09-21T15:55:11.540Z,6.50
2022-09-21T15:57:42.711Z,7.50
2022-09-21T16:00:34.889Z,9.25
2022-09-21T16:03:06.542Z,7.00
2022-09-21T16:05:44.369Z,3.50
2022-09-21T16:08:28.849Z,7.75
2022-09-21T16:11:17.630Z,6.50
2022-09-21T16:14:04.476Z,5.75
2022-09-21T16:16:33.306Z,8.00
2022-09-21T16:19:02.089Z,5.50
2022-09-21T16:21:32.998Z,5.00
2022-09-21T16:24:12.771Z,6.00
2022-09-21T16:26:42.818Z,6.25
2022-09-21T16:29:23.691Z,4.25
2022-09-21T16:31:52.286Z,6.00
2022-09-21T16:34:26.703Z,2.75
2022-09-21T16:36:55.353Z,6.50
2022-09-21T16:39:31.753Z,5.75
2022-09-21T16:42:03.337Z,9.50
2022-09-21T16:44:44.598Z,5.75
2022-09-21T16:47:21.059Z,6.25
2022-09-21T16:49:50.209Z,1.75
2022-09-21T16:52:19.220Z,5.00
2022-09-21T16:54:51.091Z,8.00
2022-09-21T16:57:19.694Z,6.50
2022-09-21T16:59:48.057Z,5.25
2022-09-21T17:02:17.058Z,6.00
2022-09-21T17:04:45.934Z,7.50
2022-09-21T17:07:18.587Z,4.75
2022-09-21T17:09:47.983Z,8.50
2022-09-21T17:12:19.250Z,7.25
2022-09-21T17:14:47.721Z,7.25
2022-09-21T17:17:18.709Z,8.50
2022-09-21T17:19:50.103Z,9.50
2022-09-21T17:22:18.826Z,9.00
2022-09-21T17:24:51.230Z,6.50
2022-09-21T17:27:23.242Z,9.75
2022-09-21T17:29:55.473Z,9.75
2022-09-21T17:32:24.747Z,10.00
2022-09-21T17:34:56.590Z,9.50
2022-09-21T17:37:26.976Z,9.25
2022-09-21T17:39:55.540Z,6.25
2022-09-21T17:42:26.382Z,6.50
2022-09-21T17:45:12.671Z,9.00
2022-09-21T17:47:41.772Z,6.25
2022-09-21T17:50:17.211Z,4.00
2022-09-21T17:53:10.698Z,6.50
2022-09-21T17:55:41.179Z,6.25
2022-09-21T17:58:39.288Z,10.75
2022-09-21T18:01:17.247Z,7.00
2022-09-21T18:03:46.168Z,7.25
2022-09-21T18:06:15.006Z,9.00
2022-09-21T18:08:44.608Z,3.00
2022-09-21T18:11:19.530Z,9.75
2022-09-21T18:13:55.561Z,7.50
2022-09-21T18:16:27.470Z,6.00
2022-09-21T18:19:07.596Z,5.75
2022-09-21T18:21:41.078Z,5.25
2022-09-21T18:24:16.308Z,6.00
2022-09-21T18:26:44.904Z,6.50
2022-09-21T18:29:41.830Z,5.50
2022-09-21T18:32:34.673Z,4.00
2022-09-21T18:35:13.141Z,7.00
2022-09-21T18:37:47.459Z,5.25
2022-09-21T18:40:22.210Z,7.50
2022-09-21T18:42:54.448Z,8.00
2022-09-21T18:45:26.010Z,5.50
2022-09-21T18:48:06.464Z,5.75
2022-09-21T18:50:37.262Z,6.50
2022-09-21T18:53:10.140Z,5.50
2022-09-21T18:55:39.173Z,5.00
2022-09-21T18:58:08.573Z,5.00
2022-09-21T19:00:39.515Z,6.50
2022-09-21T19:03:18.076Z,4.75
2022-09-21T19:05:53.329Z,8.00
2022-09-21T19:08:26.754Z,5.00
2022-09-21T19:10:58.693Z,9.00
2022-09-21T19:13:35.543Z,9.50
2022-09-21T19:16:11.723Z,9.50
2022-09-21T19:18:46.715Z,8.00
2022-09-21T19:21:21.630Z,6.00
2022-09-21T19:23:59.021Z,8.00
2022-09-21T19:26:31.133Z,9.00
2022-09-21T19:29:17.326Z,3.00
2022-09-21T19:31:47.404Z,10.00
2022-09-21T19:34:16.780Z,2.00
2022-09-21T19:36:46.760Z,6.00
2022-09-21T19:39:15.867Z,3.00
2022-09-21T19:41:50.477Z,5.75
2022-09-21T19:44:31.743Z,5.00
2022-09-21T19:47:07.910Z,4.50
2022-09-21T19:49:40.555Z,1.00
2022-09-21T19:52:12.887Z,3.50
2022-09-21T19:54:58.746Z,9.75
2022-09-21T19:57:44.891Z,4.00
2022-09-21T20:00:15.931Z,5.25
2022-09-21T20:02:52.000Z,5.00
2022-09-21T20:05:23.579Z,2.75
2022-09-21T20:07:54.466Z,4.75
2022-09-21T20:10:38.291Z,8.25
2022-09-21T20:13:14.035Z,6.00
2022-09-21T20:15:46.642Z,3.00
2022-09-21T20:18:21.756Z,8.00
2022-09-21T20:20:50.128Z,7.50
2022-09-21T20:23:18.566Z,3.25
2022-09-21T20:25:51.991Z,5.75
2022-09-21T20:28:21.590Z,5.50
2022-09-21T20:30:50.876Z,7.50
2022-09-21T20:33:23.828Z,5.50
2022-09-21T20:35:55.665Z,6.50
2022-09-21T20:38:24.445Z,5.00
2022-09-21T20:40:52.798Z,6.25
2022-09-21T20:43:23.233Z,8.00
2022-09-21T20:45:51.721Z,5.75
2022-09-21T20:48:21.512Z,0.00
2022-09-21T20:50:50.918Z,6.25
2022-09-21T20:53:19.495Z,6.75
2022-09-21T20:55:54.114Z,4.50
2022-09-21T20:58:22.952Z,8.50
2022-09-21T21:00:55.133Z,6.00
2022-09-21T21:03:27.710Z,6.75
2022-09-21T21:06:07.477Z,6.75
2022-09-21T21:08:35.717Z,5.75
2022-09-21T21:11:03.845Z,5.00
2022-09-21T21:13:32.201Z,4.75
2022-09-21T21:16:00.330Z,8.50
2022-09-21T21:18:29.827Z,5.00
2022-09-21T21:21:01.461Z,3.50
2022-09-21T21:23:30.499Z,4.50
2022-09-21T21:26:04.958Z,4.00
2022-09-21T21:28:33.032Z,6.00
2022-09-21T21:31:01.180Z,5.67
2022-09-21T21:33:31.089Z,5.75
2022-09-21T21:36:04.606Z,6.75
2022-09-21T21:38:32.815Z,6.25
2022-09-21T21:41:01.103Z,7.75
2022-09-21T21:43:33.623Z,6.00
2022-09-21T21:46:02.828Z,4.00
2022-09-21T21:48:32.526Z,2.75
2022-09-21T21:51:01.779Z,7.75
2022-09-21T21:53:30.713Z,5.50
2022-09-21T21:56:05.896Z,5.25
2022-09-21T21:58:34.229Z,7.00
2022-09-21T22:01:10.035Z,6.25
2022-09-21T22:03:41.030Z,9.00
2022-09-21T22:06:09.813Z,5.75
2022-09-21T22:08:38.778Z,10.00
2022-09-21T22:11:07.776Z,9.00
2022-09-21T22:13:36.894Z,3.00
2022-09-21T22:16:06.104Z,7.50
2022-09-21T22:18:35.027Z,2.00
2022-09-21T22:21:05.407Z,9.00
2022-09-21T22:23:33.954Z,7.75
2022-09-21T22:26:02.982Z,3.50
2022-09-21T22:28:32.392Z,6.50
2022-09-21T22:31:00.791Z,6.75
2022-09-21T22:33:33.253Z,8.50
2022-09-21T22:36:06.863Z,5.25
2022-09-21T22:38:39.205Z,6.00
2022-09-21T22:41:10.970Z,6.25
2022-09-21T22:43:39.553Z,3.50
2022-09-21T22:46:08.137Z,7.00
2022-09-21T22:48:36.647Z,5.50
2022-09-21T22:51:06.665Z,3.00
2022-09-21T22:53:35.069Z,5.75
2022-09-21T22:56:05.001Z,7.00
2022-09-21T22:58:33.586Z,7.50
2022-09-21T23:01:06.187Z,6.75
2022-09-21T23:03:34.627Z,5.50
2022-09-21T23:06:03.050Z,6.25
2022-09-21T23:08:32.695Z,8.50
2022-09-21T23:11:07.060Z,2.50
2022-09-21T23:13:35.137Z,5.00
2022-09-21T23:16:04.368Z,7.00
2022-09-21T23:18:32.678Z,5.50
2022-09-21T23:21:01.332Z,4.75
2022-09-21T23:23:29.835Z,5.50
2022-09-21T23:26:07.249Z,5.00
2022-09-21T23:28:35.718Z,9.00
2022-09-21T23:31:04.729Z,7.00
2022-09-21T23:33:33.605Z,5.75
2022-09-21T23:36:02.126Z,5.25
2022-09-21T23:38:30.635Z,6.75
2022-09-21T23:41:03.127Z,4.00
2022-09-21T23:43:33.240Z,6.25
2022-09-21T23:46:01.697Z,5.25
2022-09-21T23:48:30.019Z,8.50
2022-09-21T23:50:58.379Z,7.50
2022-09-21T23:53:28.719Z,5.00
2022-09-21T23:55:57.619Z,6.00
2022-09-21T23:58:26.137Z,1.75
